Share

Beatrice, NE

Beatrice Municipal (KBIE) Elev 1322 ft | 40.30 °N, 96.75 °W | Change Station

Current weather conditions updated 22 minutes ago

Scattered Clouds
Scattered Clouds
79 °F
Feels Like 79 °F
N
17
Wind Variable Wind from South
Sunrise 6:42 AM
Sunset 8:10 PM
Moon Waning Gibbous

Tomorrow is forecast to be nearly the same temperature as today. Light rain developing late tomorrow night.

Pressure 29.95 in
Visibility 10.0 miles
Clouds Scattered Clouds 7000 ft
Dew Point 48 °F
Humidity 33%
Rainfall 0.00 in
Snow Depth Not available.
UV 2 out of 16
Pollen 11.60 out of 12
Air Quality Not available.
Flu Activity Sporadic
METAR KBIE 192235Z AUTO 18015KT 10SM SCT070 26/09 A2995 RMK AO2 T02600086

More Conditions Fewer Conditions

Pressure 29.95 in
Visibility 10.0 miles
Clouds Scattered Clouds 7000 ft
Dew Point 48 °F
Humidity 33%
Rainfall 0.00 in
Snow Depth Not available.
UV 2 out of 16
Pollen 11.60 out of 12
Air Quality Not available.
Flu Activity Sporadic
METAR KBIE 192235Z AUTO 18015KT 10SM SCT070 26/09 A2995 RMK AO2 T02600086

More Conditions Fewer Conditions

10-Day Weather Forecast

Almanac

Astronomy

Apr. 19, 2014 Rise Set
Actual Time 6:42 AM CDT 8:10 PM CDT
Civil Twilight 6:14 AM CDT 8:38 PM CDT
Nautical Twilight 5:40 AM CDT 9:12 PM CDT
Astronomical Twilight 5:04 AM CDT 9:49 PM CDT
Moon No Moon Rise 10:02 AM CDT
Length of Visible Light 14h 24m
Length of Day
13h 27m
Tomorrow will be 2m 29s longer.
Waning Gibbous, 76% of the Moon is Illuminated
Today
Waning Gibbous
Apr 22
Last Quarter
Apr 29
New
May 6
First Quarter
May 14
Full

Today's Extremes

State Highs State Lows

Community

  • Happy Easter WU friends!!!!
    Happy Easter WU friends!!!!
  • Skirting the Horizon
    Skirting the Horizon
  • Piriapolis
    Piriapolis
  • A Glorious Morning
    A Glorious Morning
  • Tender Rays Of Hope
    Tender Rays Of Hope

WunderPhotos

Upload Photos

1,702,944 photos uploaded!

WunderBlogs® & News

Nearby

Snow Depth

Station Depth Elevation
No new snow has been reported.

Coastal Water Temperatures

Place Temperature
No Stations Reporting

Earthquake Activity

City Distance Mag. Time & Date
No recent earthquake activity has been reported nearby.
Minimum magnitude displayed is 2.5.

Nearby Weather Stations

Station Location Temp. Heat Index Dew Point Humidity Wind Precip. Elev Updated Type
2 Miles East of Plymouth, Plymouth, NE 79.7 °F 79 °F 50 °F 35% SSW  at  20.0 mph 0.00 in / hr 1394 ft 5:57 PM CDT Rapid Fire
MesoWest STEEL1 , Steele City, NE 79 °F 77 °F - - North  at  - 0.00 in / hr 1275 ft 5:00 PM CDT MADIS

Show More Stations Show Fewer Stations

What do you think?

We're not finished. Please let us know what you like, what you don't like, and what you are still missing.